Time;durP1;ratioP1;P1;durP2;ratioP2;P2;SDS_P1;SDS_P2;PMS_P1;PMS_P2;Temp;Humidity;BMP_temperature;BMP_pressure;BME280_temperature;BME280_humidity;BME280_pressure;Samples;Min_cycle;Max_cycle;Signal;HPM_P1;HPM_P2
2023/01/26 00:02:10;;;;;;;;;;;-1.60;99.90;;;;;;5055928;28;19982;-77
2023/01/26 00:04:35;;;;;;;;;;;-1.60;99.90;;;;;;5056332;28;19913;-76
2023/01/26 00:07:01;;;;;;;;;;;-1.60;99.90;;;;;;5055697;28;20419;-76
2023/01/26 00:09:26;;;;;;;;;;;-1.60;99.90;;;;;;5054387;28;20392;-77
2023/01/26 00:11:52;;;;;;;;;;;-1.50;99.90;;;;;;5055494;28;19912;-77
2023/01/26 00:14:17;;;;;;;;;;;-1.60;99.90;;;;;;5055310;28;19913;-77
2023/01/26 00:16:43;;;;;;;;;;;-1.60;99.90;;;;;;5055333;28;20357;-76
2023/01/26 00:19:08;;;;;;;;;;;-1.60;99.90;;;;;;5055271;28;20364;-77
2023/01/26 00:21:34;;;;;;;;;;;-1.60;99.90;;;;;;5055179;28;20262;-76
2023/01/26 00:23:59;;;;;;;;;;;-1.60;99.90;;;;;;5054944;28;20275;-76
2023/01/26 00:26:25;;;;;;;;;;;-1.60;99.90;;;;;;5055992;28;19913;-76
2023/01/26 00:28:51;;;;;;;;;;;-1.60;99.90;;;;;;5054651;28;20007;-76
2023/01/26 00:31:24;;;;;;;;;;;-1.60;99.90;;;;;;5054662;28;19909;-76
2023/01/26 00:33:50;;;;;;;;;;;-1.60;99.90;;;;;;5054458;28;19913;-76
2023/01/26 00:36:15;;;;;;;;;;;-1.60;99.90;;;;;;5054631;28;19939;-76
2023/01/26 00:38:41;;;;;;;;;;;-1.60;99.90;;;;;;5054423;28;20373;-76
2023/01/26 00:41:07;;;;;;;;;;;-1.60;99.90;;;;;;5054509;28;19909;-76
2023/01/26 00:43:32;;;;;;;;;;;-1.60;99.90;;;;;;5054550;28;20377;-77
2023/01/26 00:45:58;;;;;;;;;;;-1.60;99.90;;;;;;5054238;28;19913;-76
2023/01/26 00:48:24;;;;;;;;;;;-1.70;99.90;;;;;;5054206;28;19920;-77
2023/01/26 00:50:50;;;;;;;;;;;-1.80;99.90;;;;;;5054065;28;19970;-77
2023/01/26 00:53:16;;;;;;;;;;;-1.80;99.90;;;;;;5054448;28;20003;-76
2023/01/26 00:55:41;;;;;;;;;;;-1.80;99.90;;;;;;5053506;28;19920;-76
2023/01/26 00:58:08;;;;;;;;;;;-1.80;99.90;;;;;;5053592;28;20000;-76
2023/01/26 01:00:34;;;;;;;;;;;-1.80;99.90;;;;;;5053727;28;19909;-76
2023/01/26 01:03:00;;;;;;;;;;;-1.80;99.90;;;;;;5053388;28;20360;-76
2023/01/26 01:05:27;;;;;;;;;;;-1.80;99.90;;;;;;5053528;28;19917;-76
2023/01/26 01:07:52;;;;;;;;;;;-1.70;99.90;;;;;;5052156;28;19916;-76
2023/01/26 01:10:18;;;;;;;;;;;-1.70;99.90;;;;;;5053741;28;19912;-76
2023/01/26 01:12:44;;;;;;;;;;;-1.60;99.90;;;;;;5053554;28;19974;-76
2023/01/26 01:15:10;;;;;;;;;;;-1.60;99.90;;;;;;5053795;28;19963;-76
2023/01/26 01:17:36;;;;;;;;;;;-1.60;99.90;;;;;;5053857;28;20335;-76
2023/01/26 01:20:02;;;;;;;;;;;-1.60;99.90;;;;;;5053705;28;20004;-76
2023/01/26 01:22:27;;;;;;;;;;;-1.70;99.90;;;;;;5053865;28;19959;-77
2023/01/26 01:24:53;;;;;;;;;;;-1.70;99.90;;;;;;5054234;28;19913;-76
2023/01/26 01:27:19;;;;;;;;;;;-1.70;99.90;;;;;;5053658;28;19930;-76
2023/01/26 01:29:44;;;;;;;;;;;-1.70;99.90;;;;;;5053682;28;19968;-76
2023/01/26 01:32:10;;;;;;;;;;;-1.70;99.90;;;;;;5054094;28;19913;-76
2023/01/26 01:34:35;;;;;;;;;;;-1.70;99.90;;;;;;5053661;28;19965;-76
2023/01/26 01:37:01;;;;;;;;;;;-1.70;99.90;;;;;;5052582;28;19913;-76
2023/01/26 01:39:26;;;;;;;;;;;-1.70;99.90;;;;;;5053756;28;19913;-77
2023/01/26 01:41:52;;;;;;;;;;;-1.70;99.90;;;;;;5053086;28;20369;-76
2023/01/26 01:44:19;;;;;;;;;;;-1.70;99.90;;;;;;5053073;28;20050;-76
2023/01/26 01:46:46;;;;;;;;;;;-1.70;99.90;;;;;;5033193;28;19913;-76
2023/01/26 01:49:11;;;;;;;;;;;-1.70;99.90;;;;;;5033328;28;19909;-76
2023/01/26 01:51:42;;;;;;;;;;;-1.70;99.90;;;;;;5034392;28;19963;-76
2023/01/26 01:54:10;;;;;;;;;;;-1.70;99.90;;;;;;5033770;28;19909;-76
2023/01/26 01:56:38;;;;;;;;;;;-1.70;99.90;;;;;;5034290;28;19963;-76
2023/01/26 01:59:05;;;;;;;;;;;-1.70;99.90;;;;;;5036773;28;19940;-76
2023/01/26 02:01:30;;;;;;;;;;;-1.80;99.90;;;;;;5037715;28;19915;-76
2023/01/26 02:03:58;;;;;;;;;;;-1.80;99.90;;;;;;5044130;28;19916;-76
2023/01/26 02:06:28;;;;;;;;;;;-1.80;99.90;;;;;;5057673;28;19913;-76
2023/01/26 02:08:55;;;;;;;;;;;-1.80;99.90;;;;;;5055640;28;19970;-76
2023/01/26 02:11:20;;;;;;;;;;;-1.90;99.90;;;;;;5055953;28;19913;-76
2023/01/26 02:13:47;;;;;;;;;;;-1.90;99.90;;;;;;5056218;28;19909;-77
2023/01/26 02:16:13;;;;;;;;;;;-2.00;99.90;;;;;;5057281;28;19913;-76
2023/01/26 02:18:39;;;;;;;;;;;-2.00;99.90;;;;;;5057186;28;20304;-76
2023/01/26 02:21:06;;;;;;;;;;;-2.00;99.90;;;;;;5056822;28;19912;-76
2023/01/26 02:23:31;;;;;;;;;;;-2.10;99.90;;;;;;5057150;28;20388;-76
2023/01/26 02:26:02;;;;;;;;;;;-2.10;99.90;;;;;;5056439;28;19909;-76
2023/01/26 02:28:28;;;;;;;;;;;-2.10;99.90;;;;;;5057189;28;20341;-76
2023/01/26 02:30:54;;;;;;;;;;;-2.20;99.90;;;;;;5057137;28;19952;-77
2023/01/26 02:33:21;;;;;;;;;;;-2.30;99.90;;;;;;5056973;28;19913;-76
2023/01/26 02:35:47;;;;;;;;;;;-2.30;99.90;;;;;;5056802;28;19913;-76
2023/01/26 02:38:12;;;;;;;;;;;-2.30;99.90;;;;;;5057289;28;19913;-76
2023/01/26 02:40:42;;;;;;;;;;;-2.20;99.90;;;;;;5057563;28;19917;-77
2023/01/26 02:43:08;;;;;;;;;;;-2.30;99.90;;;;;;5057453;28;20345;-76
2023/01/26 02:45:34;;;;;;;;;;;-2.30;99.90;;;;;;5057092;28;19996;-77
2023/01/26 02:48:03;;;;;;;;;;;-2.30;99.90;;;;;;5056886;28;19921;-77
2023/01/26 02:50:29;;;;;;;;;;;-2.30;99.90;;;;;;5056752;28;19928;-77
2023/01/26 02:52:55;;;;;;;;;;;-2.30;99.90;;;;;;5056010;28;20281;-77
2023/01/26 02:55:21;;;;;;;;;;;-2.30;99.90;;;;;;5056894;28;19913;-77
2023/01/26 02:57:47;;;;;;;;;;;-2.30;99.90;;;;;;5057095;28;19923;-76
2023/01/26 03:00:16;;;;;;;;;;;-2.30;99.90;;;;;;5057151;28;20012;-77
2023/01/26 03:02:43;;;;;;;;;;;-2.30;99.90;;;;;;5055589;28;19931;-77
2023/01/26 03:05:08;;;;;;;;;;;-2.30;99.90;;;;;;5057054;28;19920;-77
2023/01/26 03:07:34;;;;;;;;;;;-2.30;99.90;;;;;;5057293;28;19909;-77
2023/01/26 03:09:59;;;;;;;;;;;-2.30;99.90;;;;;;5055708;28;19920;-77
2023/01/26 03:12:25;;;;;;;;;;;-2.30;99.90;;;;;;5057359;28;20353;-77
2023/01/26 03:17:35;;;;;;;;;;;-2.30;99.90;;;;;;5056566;28;19915;-77
2023/01/26 03:28:13;;;;;;;;;;;-2.20;99.90;;;;;;5055827;28;19966;-77
2023/01/26 03:30:39;;;;;;;;;;;-2.20;99.90;;;;;;5055851;28;19917;-77
2023/01/26 03:33:04;;;;;;;;;;;-2.30;99.90;;;;;;5054254;28;19916;-77
2023/01/26 03:35:31;;;;;;;;;;;-2.30;99.90;;;;;;5055362;28;19917;-77
2023/01/26 03:37:57;;;;;;;;;;;-2.40;99.90;;;;;;5055706;28;19913;-77
2023/01/26 03:56:48;;;;;;;;;;;-2.40;99.90;;;;;;5055665;28;19939;-77
2023/01/26 03:59:15;;;;;;;;;;;-2.40;99.90;;;;;;5055316;28;20365;-77
2023/01/26 04:09:54;;;;;;;;;;;-2.30;99.90;;;;;;5055476;28;19963;-77
2023/01/26 04:12:20;;;;;;;;;;;-2.30;99.90;;;;;;5055589;28;19913;-77
2023/01/26 04:22:58;;;;;;;;;;;-2.30;99.90;;;;;;5054806;28;19955;-77
2023/01/26 04:25:23;;;;;;;;;;;-2.30;99.90;;;;;;5055061;28;19913;-77
2023/01/26 04:27:49;;;;;;;;;;;-2.30;99.90;;;;;;5054920;28;19917;-77
2023/01/26 04:30:15;;;;;;;;;;;-2.30;99.90;;;;;;5054852;28;19916;-77
2023/01/26 04:32:40;;;;;;;;;;;-2.30;99.90;;;;;;5054830;28;19979;-78
2023/01/26 04:35:07;;;;;;;;;;;-2.30;99.90;;;;;;5054469;28;20362;-77
2023/01/26 04:37:32;;;;;;;;;;;-2.30;99.90;;;;;;5055302;28;19909;-77
2023/01/26 04:39:58;;;;;;;;;;;-2.30;99.90;;;;;;5054603;28;20373;-77
2023/01/26 04:42:24;;;;;;;;;;;-2.30;99.90;;;;;;5054651;28;20280;-77
2023/01/26 04:44:50;;;;;;;;;;;-2.30;99.90;;;;;;5053284;28;19954;-76
2023/01/26 04:47:16;;;;;;;;;;;-2.30;99.90;;;;;;5053179;28;19975;-77
2023/01/26 04:49:42;;;;;;;;;;;-2.30;99.90;;;;;;5053872;28;20392;-76
2023/01/26 04:52:08;;;;;;;;;;;-2.30;99.90;;;;;;5054513;28;19909;-77
2023/01/26 04:54:33;;;;;;;;;;;-2.30;99.90;;;;;;5053778;28;19920;-77
2023/01/26 04:56:59;;;;;;;;;;;-2.20;99.90;;;;;;5053975;28;19924;-77
2023/01/26 04:59:24;;;;;;;;;;;-2.20;99.90;;;;;;5054072;28;19988;-77
2023/01/26 05:01:50;;;;;;;;;;;-2.30;99.90;;;;;;5052733;28;19959;-77
2023/01/26 05:04:16;;;;;;;;;;;-2.20;99.90;;;;;;5054386;28;19917;-77
2023/01/26 05:06:41;;;;;;;;;;;-2.20;99.90;;;;;;5052669;28;19913;-76
2023/01/26 05:09:07;;;;;;;;;;;-2.20;99.90;;;;;;5054328;28;19917;-77
2023/01/26 05:11:33;;;;;;;;;;;-2.20;99.90;;;;;;5054358;28;19913;-77
2023/01/26 05:13:59;;;;;;;;;;;-2.30;99.90;;;;;;5054178;28;19908;-77
2023/01/26 05:16:27;;;;;;;;;;;-2.30;99.90;;;;;;5035673;28;21620;-77
2023/01/26 05:18:53;;;;;;;;;;;-2.30;99.90;;;;;;5033025;28;19909;-76
2023/01/26 05:21:18;;;;;;;;;;;-2.30;99.90;;;;;;5033712;28;20452;-77
2023/01/26 05:23:44;;;;;;;;;;;-2.30;99.90;;;;;;5034322;28;19945;-77
2023/01/26 05:26:09;;;;;;;;;;;-2.30;99.90;;;;;;5033028;28;20328;-77
2023/01/26 05:28:35;;;;;;;;;;;-2.30;99.90;;;;;;5033494;28;20000;-76
2023/01/26 05:31:01;;;;;;;;;;;-2.40;99.90;;;;;;5033399;28;20023;-77
2023/01/26 05:33:26;;;;;;;;;;;-2.50;99.90;;;;;;5032799;28;20254;-76
2023/01/26 05:35:52;;;;;;;;;;;-2.50;99.90;;;;;;5033485;28;19917;-76
2023/01/26 05:38:18;;;;;;;;;;;-2.50;99.90;;;;;;5033098;28;19916;-76
2023/01/26 05:40:44;;;;;;;;;;;-2.40;99.90;;;;;;5033000;28;20340;-76
2023/01/26 05:43:09;;;;;;;;;;;-2.40;99.90;;;;;;5033229;28;19924;-76
2023/01/26 05:45:35;;;;;;;;;;;-2.40;99.90;;;;;;5055380;28;19920;-76
2023/01/26 05:48:01;;;;;;;;;;;-2.30;99.90;;;;;;5033487;28;20130;-76
2023/01/26 05:50:26;;;;;;;;;;;-2.30;99.90;;;;;;5032928;28;19909;-76
2023/01/26 05:52:52;;;;;;;;;;;-2.30;99.90;;;;;;5033168;28;19909;-77
2023/01/26 05:55:18;;;;;;;;;;;-2.30;99.90;;;;;;5032938;28;20012;-77
2023/01/26 05:57:43;;;;;;;;;;;-2.30;99.90;;;;;;5033056;28;19910;-76
2023/01/26 06:00:09;;;;;;;;;;;-2.40;99.90;;;;;;5033339;28;20388;-77
2023/01/26 06:02:35;;;;;;;;;;;-2.50;99.90;;;;;;5048374;28;19917;-76
2023/01/26 06:05:00;;;;;;;;;;;-2.50;99.90;;;;;;5032939;28;19909;-76
2023/01/26 06:07:26;;;;;;;;;;;-2.50;99.90;;;;;;5033026;28;20012;-77
2023/01/26 06:09:52;;;;;;;;;;;-2.60;99.90;;;;;;5033135;28;20360;-77
2023/01/26 06:12:18;;;;;;;;;;;-2.50;99.90;;;;;;5032198;28;19920;-77
2023/01/26 06:14:44;;;;;;;;;;;-2.50;99.90;;;;;;5037274;28;20010;-77
2023/01/26 06:17:10;;;;;;;;;;;-2.40;99.90;;;;;;5053465;28;19912;-77
2023/01/26 06:19:36;;;;;;;;;;;-2.40;99.90;;;;;;5053627;28;19944;-77
2023/01/26 06:22:02;;;;;;;;;;;-2.40;99.90;;;;;;5053627;28;19909;-77
2023/01/26 06:24:28;;;;;;;;;;;-2.30;99.90;;;;;;5053451;28;19908;-76
2023/01/26 06:26:54;;;;;;;;;;;-2.20;99.90;;;;;;5050842;28;19940;-76
2023/01/26 06:29:19;;;;;;;;;;;-2.20;99.90;;;;;;5052323;28;19924;-76
2023/01/26 06:31:45;;;;;;;;;;;-2.10;99.90;;;;;;5051421;28;19913;-76
2023/01/26 06:34:10;;;;;;;;;;;-2.10;99.90;;;;;;5052420;28;19913;-76
2023/01/26 06:36:36;;;;;;;;;;;-2.20;99.90;;;;;;5050593;28;19916;-76
2023/01/26 06:39:01;;;;;;;;;;;-2.20;99.90;;;;;;5052395;28;19909;-76
2023/01/26 06:41:27;;;;;;;;;;;-2.30;99.90;;;;;;5052251;28;19913;-76
2023/01/26 06:43:53;;;;;;;;;;;-2.30;99.90;;;;;;5053568;28;19909;-77
2023/01/26 06:46:18;;;;;;;;;;;-2.30;99.90;;;;;;5056728;28;19999;-77
2023/01/26 06:48:44;;;;;;;;;;;-2.30;99.90;;;;;;5057857;28;19936;-79
2023/01/26 06:51:19;;;;;;;;;;;-2.30;99.90;;;;;;5055527;28;19956;-77
2023/01/26 06:53:57;;;;;;;;;;;-2.40;99.90;;;;;;5059292;28;20315;-77
2023/01/26 06:56:23;;;;;;;;;;;-2.40;99.90;;;;;;5057113;28;19912;-77
2023/01/26 06:58:49;;;;;;;;;;;-2.50;99.90;;;;;;5055822;28;20005;-77
2023/01/26 07:01:16;;;;;;;;;;;-2.50;99.90;;;;;;5056859;28;19951;-77
2023/01/26 07:03:41;;;;;;;;;;;-2.50;99.90;;;;;;5057187;28;19948;-77
2023/01/26 07:06:10;;;;;;;;;;;-2.50;99.90;;;;;;5057246;28;20289;-78
2023/01/26 07:08:36;;;;;;;;;;;-2.50;99.90;;;;;;5061372;28;19913;-77
2023/01/26 07:11:01;;;;;;;;;;;-2.50;99.90;;;;;;5061354;28;19909;-77
2023/01/26 07:13:27;;;;;;;;;;;-2.50;99.90;;;;;;5043226;28;19913;-77
2023/01/26 07:15:59;;;;;;;;;;;-2.50;99.90;;;;;;5060379;28;19917;-77
2023/01/26 07:18:24;;;;;;;;;;;-2.50;99.90;;;;;;5059679;28;19916;-77
2023/01/26 07:20:50;;;;;;;;;;;-2.60;99.90;;;;;;5059224;28;20322;-77
2023/01/26 07:23:15;;;;;;;;;;;-2.60;99.90;;;;;;5060116;28;19913;-77
2023/01/26 07:25:42;;;;;;;;;;;-2.70;99.90;;;;;;5059636;28;19920;-77
2023/01/26 07:28:09;;;;;;;;;;;-2.70;99.90;;;;;;5059452;28;19924;-77
2023/01/26 07:30:35;;;;;;;;;;;-2.70;99.90;;;;;;5059170;28;20002;-77
2023/01/26 07:33:00;;;;;;;;;;;-2.70;99.90;;;;;;5058644;28;19913;-77
2023/01/26 07:35:28;;;;;;;;;;;-2.70;99.90;;;;;;5059661;28;19928;-77
2023/01/26 07:37:54;;;;;;;;;;;-2.70;99.90;;;;;;5058031;28;19920;-77
2023/01/26 07:40:19;;;;;;;;;;;-2.70;99.90;;;;;;5059794;28;19966;-77
2023/01/26 07:42:45;;;;;;;;;;;-2.70;99.90;;;;;;5059544;28;19913;-77
2023/01/26 07:45:11;;;;;;;;;;;-2.70;99.90;;;;;;5058488;28;19912;-77
2023/01/26 07:47:37;;;;;;;;;;;-2.70;99.90;;;;;;5059126;28;19909;-77
2023/01/26 07:50:03;;;;;;;;;;;-2.70;99.90;;;;;;5057424;28;19920;-77
2023/01/26 07:52:28;;;;;;;;;;;-2.60;99.90;;;;;;5057842;28;19913;-77
2023/01/26 07:54:54;;;;;;;;;;;-2.60;99.90;;;;;;5057421;28;19917;-77
2023/01/26 07:57:19;;;;;;;;;;;-2.50;99.90;;;;;;5040248;28;19924;-77
2023/01/26 07:59:45;;;;;;;;;;;-2.50;99.90;;;;;;5040673;28;19939;-77
2023/01/26 08:02:10;;;;;;;;;;;-2.50;99.90;;;;;;5055161;28;20369;-77
2023/01/26 08:04:36;;;;;;;;;;;-2.50;99.90;;;;;;5057165;28;20369;-77
2023/01/26 08:07:01;;;;;;;;;;;-2.60;99.90;;;;;;5039691;28;19913;-77
2023/01/26 08:09:27;;;;;;;;;;;-2.60;99.90;;;;;;5056509;28;19920;-77
2023/01/26 08:11:55;;;;;;;;;;;-2.60;99.90;;;;;;5057998;28;19913;-77
2023/01/26 08:14:20;;;;;;;;;;;-2.60;99.90;;;;;;5056753;28;19913;-76
2023/01/26 08:16:46;;;;;;;;;;;-2.60;99.90;;;;;;5056253;28;20012;-77
2023/01/26 08:19:11;;;;;;;;;;;-2.60;99.90;;;;;;5056952;28;19913;-77
2023/01/26 08:21:37;;;;;;;;;;;-2.50;99.90;;;;;;5040946;28;20277;-76
2023/01/26 08:24:03;;;;;;;;;;;-2.60;99.90;;;;;;5038858;28;20262;-77
2023/01/26 08:26:29;;;;;;;;;;;-2.50;99.90;;;;;;5056649;28;19948;-77
2023/01/26 08:28:54;;;;;;;;;;;-2.60;99.90;;;;;;5054626;28;19920;-77
2023/01/26 08:31:20;;;;;;;;;;;-2.50;99.90;;;;;;5054837;28;20331;-77
2023/01/26 08:33:47;;;;;;;;;;;-2.50;99.90;;;;;;5054723;28;19908;-77
2023/01/26 08:36:13;;;;;;;;;;;-2.50;99.90;;;;;;5056143;28;19913;-77
2023/01/26 08:38:39;;;;;;;;;;;-2.50;99.90;;;;;;5056377;28;19916;-76
2023/01/26 08:41:05;;;;;;;;;;;-2.40;99.90;;;;;;5056190;28;19908;-77
2023/01/26 08:43:31;;;;;;;;;;;-2.40;99.90;;;;;;5055728;28;19963;-77
2023/01/26 08:45:57;;;;;;;;;;;-2.30;99.90;;;;;;5055592;28;19909;-77
2023/01/26 08:48:22;;;;;;;;;;;-2.20;99.90;;;;;;5055671;28;20284;-77
2023/01/26 08:50:52;;;;;;;;;;;-2.10;99.90;;;;;;5055598;28;19920;-77
2023/01/26 08:53:17;;;;;;;;;;;-2.00;99.90;;;;;;5054427;28;20000;-77
2023/01/26 08:55:43;;;;;;;;;;;-1.90;99.90;;;;;;5037935;28;20015;-77
2023/01/26 08:58:08;;;;;;;;;;;-1.80;99.90;;;;;;5056652;28;20360;-77
2023/01/26 09:00:34;;;;;;;;;;;-1.70;99.90;;;;;;5058371;28;20426;-77
2023/01/26 09:03:00;;;;;;;;;;;-1.60;99.90;;;;;;5055677;28;19979;-77
2023/01/26 09:05:27;;;;;;;;;;;-1.50;99.90;;;;;;5055164;28;19909;-77
2023/01/26 09:07:52;;;;;;;;;;;-1.40;99.90;;;;;;5057685;28;19962;-77
2023/01/26 09:10:18;;;;;;;;;;;-1.30;99.90;;;;;;5057731;28;20286;-77
2023/01/26 09:12:43;;;;;;;;;;;-1.20;99.90;;;;;;5058943;28;19919;-77
2023/01/26 09:15:09;;;;;;;;;;;-1.10;99.90;;;;;;5058596;28;20345;-77
2023/01/26 09:17:35;;;;;;;;;;;-1.00;99.90;;;;;;5057342;28;20344;-77
2023/01/26 09:20:00;;;;;;;;;;;-0.90;99.90;;;;;;5056216;28;19955;-76
2023/01/26 09:22:26;;;;;;;;;;;-0.80;99.90;;;;;;5053254;28;20019;-78
2023/01/26 09:24:51;;;;;;;;;;;-0.60;99.90;;;;;;5054633;28;20326;-77
2023/01/26 09:27:17;;;;;;;;;;;-0.50;99.90;;;;;;5052745;28;19912;-77
2023/01/26 09:29:42;;;;;;;;;;;-0.40;99.90;;;;;;5052580;28;19921;-77
2023/01/26 09:32:08;;;;;;;;;;;-0.30;99.90;;;;;;5052959;28;19913;-77
2023/01/26 09:34:33;;;;;;;;;;;-0.20;99.90;;;;;;5051728;28;19936;-78
2023/01/26 09:36:59;;;;;;;;;;;0.00;99.90;;;;;;5053004;28;19924;-77
2023/01/26 09:39:25;;;;;;;;;;;0.10;99.90;;;;;;5053478;28;20349;-77
2023/01/26 09:42:09;;;;;;;;;;;0.20;99.90;;;;;;5054328;28;20003;-77
2023/01/26 09:44:40;;;;;;;;;;;0.20;99.90;;;;;;5054945;28;19913;-77
2023/01/26 09:47:12;;;;;;;;;;;0.20;99.90;;;;;;5054665;28;19916;-77
2023/01/26 09:50:01;;;;;;;;;;;0.20;99.90;;;;;;5054482;28;19992;-77
2023/01/26 09:52:29;;;;;;;;;;;0.20;99.90;;;;;;5054192;28;19909;-77
2023/01/26 09:54:57;;;;;;;;;;;0.10;99.90;;;;;;5054524;28;19913;-77
2023/01/26 09:57:28;;;;;;;;;;;-0.10;99.90;;;;;;5054273;28;19931;-77
2023/01/26 10:00:05;;;;;;;;;;;-0.20;99.90;;;;;;5052877;28;19909;-77
2023/01/26 10:02:33;;;;;;;;;;;-0.40;99.90;;;;;;5054450;28;19908;-77
2023/01/26 10:05:02;;;;;;;;;;;-0.50;99.90;;;;;;5054533;28;19916;-77
2023/01/26 10:07:28;;;;;;;;;;;-0.50;99.90;;;;;;5053762;28;20322;-77
2023/01/26 10:09:53;;;;;;;;;;;-0.60;99.90;;;;;;5052772;28;19972;-77
2023/01/26 10:12:22;;;;;;;;;;;-0.60;99.90;;;;;;5053867;28;20365;-77
2023/01/26 10:14:50;;;;;;;;;;;-0.70;99.90;;;;;;5054439;28;19909;-77
2023/01/26 10:17:18;;;;;;;;;;;-0.70;99.90;;;;;;5054113;28;20388;-77
2023/01/26 10:19:49;;;;;;;;;;;-0.60;99.90;;;;;;5056596;28;19987;-77
2023/01/26 10:22:19;;;;;;;;;;;-0.50;99.90;;;;;;5056531;28;19932;-77
2023/01/26 10:24:47;;;;;;;;;;;-0.30;99.90;;;;;;5056844;28;19915;-77
2023/01/26 10:27:15;;;;;;;;;;;-0.10;99.90;;;;;;5058637;28;19915;-77
2023/01/26 10:29:40;;;;;;;;;;;0.10;99.90;;;;;;5056623;28;20379;-77
2023/01/26 10:32:16;;;;;;;;;;;0.20;99.90;;;;;;5058351;28;19908;-77
2023/01/26 10:34:44;;;;;;;;;;;0.30;99.90;;;;;;5056533;28;19909;-77
2023/01/26 10:37:20;;;;;;;;;;;0.30;99.90;;;;;;5057988;28;19935;-77
2023/01/26 10:40:03;;;;;;;;;;;0.40;99.90;;;;;;5058079;28;19913;-77
2023/01/26 10:42:30;;;;;;;;;;;0.40;99.90;;;;;;5056813;28;20331;-77
2023/01/26 10:44:56;;;;;;;;;;;0.50;99.90;;;;;;5057891;28;19909;-77
2023/01/26 10:47:21;;;;;;;;;;;0.60;99.90;;;;;;5057589;28;19916;-77
2023/01/26 10:49:47;;;;;;;;;;;0.60;99.90;;;;;;5058167;28;19913;-77
2023/01/26 10:52:17;;;;;;;;;;;0.60;99.90;;;;;;5056845;28;20281;-77
2023/01/26 10:54:46;;;;;;;;;;;0.50;99.90;;;;;;5057931;28;19912;-77
2023/01/26 10:57:28;;;;;;;;;;;0.50;99.90;;;;;;5058545;28;19913;-77
2023/01/26 10:59:58;;;;;;;;;;;0.40;99.90;;;;;;5057469;28;19963;-77
2023/01/26 11:02:28;;;;;;;;;;;0.30;99.90;;;;;;5056264;28;20357;-76
2023/01/26 11:05:05;;;;;;;;;;;0.30;99.90;;;;;;5057481;28;19912;-77
2023/01/26 11:07:37;;;;;;;;;;;0.20;99.90;;;;;;5055501;28;19913;-76
2023/01/26 11:10:23;;;;;;;;;;;0.20;99.90;;;;;;5056760;28;19909;-76
2023/01/26 11:12:49;;;;;;;;;;;0.20;99.90;;;;;;5055906;28;19909;-77
2023/01/26 11:15:16;;;;;;;;;;;0.30;99.90;;;;;;5057944;28;20384;-77
2023/01/26 11:17:41;;;;;;;;;;;0.40;99.90;;;;;;5057172;28;20451;-77
2023/01/26 11:20:19;;;;;;;;;;;0.50;99.90;;;;;;5057138;28;19952;-77
2023/01/26 11:23:02;;;;;;;;;;;0.60;99.90;;;;;;5055499;28;19909;-77
2023/01/26 11:25:40;;;;;;;;;;;0.70;99.90;;;;;;5056464;28;19909;-77
2023/01/26 11:28:28;;;;;;;;;;;0.80;99.90;;;;;;5055938;28;20007;-76
2023/01/26 11:30:59;;;;;;;;;;;0.90;99.90;;;;;;5051717;28;20027;-76
2023/01/26 11:33:34;;;;;;;;;;;0.90;99.90;;;;;;5036144;28;19916;-76
2023/01/26 11:36:09;;;;;;;;;;;0.90;99.90;;;;;;5035930;28;19924;-75
2023/01/26 11:38:37;;;;;;;;;;;1.00;99.90;;;;;;5035836;28;19909;-76
2023/01/26 11:41:11;;;;;;;;;;;0.90;99.90;;;;;;5036075;28;19956;-76
2023/01/26 11:43:48;;;;;;;;;;;0.90;99.90;;;;;;5036202;28;19912;-75
2023/01/26 11:46:14;;;;;;;;;;;0.80;99.90;;;;;;5050461;28;19931;-76
2023/01/26 11:48:51;;;;;;;;;;;0.70;99.90;;;;;;5055441;28;20428;-76
2023/01/26 11:51:16;;;;;;;;;;;0.60;99.90;;;;;;5055096;28;19909;-76
2023/01/26 11:53:43;;;;;;;;;;;0.50;99.90;;;;;;5055653;28;19913;-75
2023/01/26 11:56:27;;;;;;;;;;;0.50;99.90;;;;;;5055844;28;20250;-75
2023/01/26 11:58:56;;;;;;;;;;;0.50;99.90;;;;;;5055681;28;19909;-75
2023/01/26 12:01:27;;;;;;;;;;;0.50;99.90;;;;;;5055587;28;19931;-76
2023/01/26 12:03:54;;;;;;;;;;;0.50;99.90;;;;;;5055334;28;19909;-76
2023/01/26 12:06:25;;;;;;;;;;;0.50;99.90;;;;;;5054247;28;19917;-76
2023/01/26 12:08:58;;;;;;;;;;;0.40;99.90;;;;;;5055286;28;19909;-76
2023/01/26 12:11:27;;;;;;;;;;;0.40;99.90;;;;;;5055296;28;19912;-76
2023/01/26 12:13:55;;;;;;;;;;;0.50;99.90;;;;;;5055310;28;19931;-75
2023/01/26 12:16:30;;;;;;;;;;;0.50;99.90;;;;;;5055121;28;19920;-76
2023/01/26 12:19:04;;;;;;;;;;;0.40;99.90;;;;;;5055187;28;19909;-76
2023/01/26 12:21:32;;;;;;;;;;;0.30;99.90;;;;;;5055155;28;19920;-76
2023/01/26 12:24:01;;;;;;;;;;;0.20;99.90;;;;;;5055424;28;19908;-76
2023/01/26 12:26:29;;;;;;;;;;;0.20;99.90;;;;;;5053875;28;19916;-76
2023/01/26 12:29:14;;;;;;;;;;;0.20;99.90;;;;;;5054878;28;19923;-75
2023/01/26 12:31:56;;;;;;;;;;;0.20;99.90;;;;;;5053886;28;20304;-76
2023/01/26 12:34:26;;;;;;;;;;;0.20;99.90;;;;;;5054610;28;20288;-75
2023/01/26 12:36:54;;;;;;;;;;;0.10;99.90;;;;;;5053925;28;19920;-76
2023/01/26 12:39:23;;;;;;;;;;;0.10;99.90;;;;;;5054573;28;20289;-75
2023/01/26 12:41:51;;;;;;;;;;;0.00;99.90;;;;;;5054399;28;19916;-75
2023/01/26 12:44:16;;;;;;;;;;;0.00;99.90;;;;;;5054671;28;19909;-76
2023/01/26 12:46:45;;;;;;;;;;;0.10;99.90;;;;;;5054664;28;19974;-76
2023/01/26 12:49:17;;;;;;;;;;;0.00;99.90;;;;;;5053296;28;19916;-76
2023/01/26 12:51:45;;;;;;;;;;;0.00;99.90;;;;;;5054272;28;19909;-76
2023/01/26 12:54:37;;;;;;;;;;;-0.10;99.90;;;;;;5054786;28;19909;-76
2023/01/26 12:57:04;;;;;;;;;;;-0.10;99.90;;;;;;5050358;28;19936;-76
2023/01/26 12:59:33;;;;;;;;;;;-0.20;99.90;;;;;;5054192;28;20384;-76
2023/01/26 13:02:00;;;;;;;;;;;-0.20;99.90;;;;;;5053690;28;19915;-76
2023/01/26 13:04:26;;;;;;;;;;;-0.20;99.90;;;;;;5054280;28;20388;-76
2023/01/26 13:07:02;;;;;;;;;;;-0.20;99.90;;;;;;5053945;28;19912;-76
2023/01/26 13:09:28;;;;;;;;;;;-0.20;99.90;;;;;;5054159;28;20419;-76
2023/01/26 13:11:55;;;;;;;;;;;-0.20;99.90;;;;;;5054227;28;19913;-75
2023/01/26 13:14:32;;;;;;;;;;;-0.30;99.90;;;;;;5054135;28;19917;-75
2023/01/26 13:17:18;;;;;;;;;;;-0.40;99.90;;;;;;5054042;28;19913;-76
2023/01/26 13:19:43;;;;;;;;;;;-0.40;99.90;;;;;;5054097;28;20373;-76
2023/01/26 13:22:18;;;;;;;;;;;-0.40;99.90;;;;;;5053766;28;19913;-75
2023/01/26 13:24:47;;;;;;;;;;;-0.50;99.90;;;;;;5054054;28;20284;-75
2023/01/26 13:27:31;;;;;;;;;;;-0.40;99.90;;;;;;5053734;28;19919;-76
2023/01/26 13:29:57;;;;;;;;;;;-0.40;99.90;;;;;;5052566;28;19967;-75
2023/01/26 13:32:23;;;;;;;;;;;-0.40;99.90;;;;;;5054148;28;19909;-75
2023/01/26 13:34:56;;;;;;;;;;;-0.50;99.90;;;;;;5053779;28;19996;-75
2023/01/26 13:37:29;;;;;;;;;;;-0.50;99.90;;;;;;5053263;28;19913;-76
2023/01/26 13:39:57;;;;;;;;;;;-0.50;99.90;;;;;;5054079;28;20321;-76
2023/01/26 13:42:26;;;;;;;;;;;-0.50;99.90;;;;;;5053738;28;20292;-75
2023/01/26 13:45:01;;;;;;;;;;;-0.50;99.90;;;;;;5053638;28;19908;-75
2023/01/26 13:47:33;;;;;;;;;;;-0.50;99.90;;;;;;5053693;28;19916;-76
2023/01/26 13:49:58;;;;;;;;;;;-0.50;99.90;;;;;;5053489;28;19912;-75
2023/01/26 13:52:25;;;;;;;;;;;-0.60;99.90;;;;;;5052367;28;19922;-76
2023/01/26 13:54:55;;;;;;;;;;;-0.60;99.90;;;;;;5053352;28;19924;-75
2023/01/26 13:57:21;;;;;;;;;;;-0.60;99.90;;;;;;5053350;28;20288;-75
2023/01/26 13:59:47;;;;;;;;;;;-0.60;99.90;;;;;;5053160;28;19909;-76
2023/01/26 14:02:39;;;;;;;;;;;-0.60;99.90;;;;;;5052598;28;19940;-75
2023/01/26 14:05:05;;;;;;;;;;;-0.60;99.90;;;;;;5048819;28;19959;-76
2023/01/26 14:07:33;;;;;;;;;;;-0.60;99.90;;;;;;5052066;28;19978;-76
2023/01/26 14:10:00;;;;;;;;;;;-0.70;99.90;;;;;;5051314;28;19991;-75
2023/01/26 14:12:25;;;;;;;;;;;-0.70;99.90;;;;;;5052634;28;19908;-75
2023/01/26 14:14:53;;;;;;;;;;;-0.70;99.90;;;;;;5051721;28;19915;-75
2023/01/26 14:17:32;;;;;;;;;;;-0.70;99.90;;;;;;5052843;28;20344;-76
2023/01/26 14:19:58;;;;;;;;;;;-0.80;99.90;;;;;;5051508;28;19912;-75
2023/01/26 14:22:25;;;;;;;;;;;-0.70;99.90;;;;;;5051932;28;20016;-75
2023/01/26 14:24:51;;;;;;;;;;;-0.70;99.90;;;;;;5053461;28;19959;-76
2023/01/26 14:27:26;;;;;;;;;;;-0.70;99.90;;;;;;5052113;28;19909;-75
2023/01/26 14:29:52;;;;;;;;;;;-0.70;99.90;;;;;;5053310;28;20335;-75
2023/01/26 14:32:17;;;;;;;;;;;-0.70;99.90;;;;;;5053701;28;19958;-75
2023/01/26 14:34:53;;;;;;;;;;;-0.70;99.90;;;;;;5052897;28;20270;-76
2023/01/26 14:37:18;;;;;;;;;;;-0.70;99.90;;;;;;5052879;28;19955;-76
2023/01/26 14:39:46;;;;;;;;;;;-0.80;99.90;;;;;;5052786;28;19908;-75
2023/01/26 14:42:16;;;;;;;;;;;-0.90;99.90;;;;;;5053677;28;20280;-79
2023/01/26 14:44:42;;;;;;;;;;;-0.90;99.90;;;;;;5055444;28;19909;-78
2023/01/26 14:47:14;;;;;;;;;;;-0.90;99.90;;;;;;5053090;28;19913;-78
2023/01/26 14:49:50;;;;;;;;;;;-0.90;99.90;;;;;;5055497;28;19975;-78
2023/01/26 14:52:17;;;;;;;;;;;-0.90;99.90;;;;;;5056858;28;19915;-77
2023/01/26 14:54:43;;;;;;;;;;;-0.90;99.90;;;;;;5055514;28;20253;-77
2023/01/26 14:57:12;;;;;;;;;;;-0.90;99.90;;;;;;5061566;28;19923;-78
2023/01/26 14:59:39;;;;;;;;;;;-0.90;99.90;;;;;;5064902;28;19962;-78
2023/01/26 15:02:15;;;;;;;;;;;-0.80;99.90;;;;;;5062627;28;19909;-79
2023/01/26 15:04:43;;;;;;;;;;;-0.90;99.90;;;;;;5057093;28;20373;-78
2023/01/26 15:07:22;;;;;;;;;;;-1.00;99.90;;;;;;5073129;28;19909;-78